Time;durP1;ratioP1;P1;durP2;ratioP2;P2;SDS_P1;SDS_P2;PMS_P1;PMS_P2;Temp;Humidity;BMP_temperature;BMP_pressure;BME280_temperature;BME280_humidity;BME280_pressure;Samples;Min_cycle;Max_cycle;Signal;HPM_P1;HPM_P2
2022/09/13 00:01:44;;;;;;;8.60;3.27;;;;;;;;;;5000158;28;20435;-87
2022/09/13 00:04:10;;;;;;;3.37;2.70;;;;;;;;;;4981599;28;20185;-86
2022/09/13 00:06:36;;;;;;;6.43;3.47;;;14.80;99.90;;;;;;4978355;28;20439;-85
2022/09/13 00:09:02;;;;;;;4.53;3.50;;;;;;;;;;5003694;28;20450;-86
2022/09/13 00:11:30;;;;;;;8.80;3.43;;;14.70;99.90;;;;;;4984285;28;20232;-88
2022/09/13 00:13:57;;;;;;;3.40;2.97;;;14.70;99.90;;;;;;4997439;28;20502;-86
2022/09/13 00:16:25;;;;;;;4.03;3.10;;;14.60;99.90;;;;;;4998914;28;20445;-87
2022/09/13 00:18:51;;;;;;;3.77;2.90;;;14.60;99.90;;;;;;4994792;28;20443;-88
2022/09/13 00:21:19;;;;;;;5.23;3.70;;;14.70;99.90;;;;;;4984654;28;20523;-88
2022/09/13 00:23:51;;;;;;;7.90;3.77;;;14.60;99.90;;;;;;5003661;28;20477;-87
2022/09/13 00:26:20;;;;;;;3.53;2.60;;;14.60;99.90;;;;;;4990175;28;20487;-87
2022/09/13 00:28:51;;;;;;;4.23;3.60;;;14.60;99.90;;;;;;5000942;28;22135;-88
2022/09/13 00:31:19;;;;;;;6.63;3.80;;;14.60;99.90;;;;;;5001823;28;20471;-84
2022/09/13 00:33:44;;;;;;;6.63;4.10;;;14.60;99.90;;;;;;5002546;28;20534;-87
2022/09/13 00:36:11;;;;;;;5.17;4.00;;;14.40;99.90;;;;;;4991943;28;20683;-89
2022/09/13 00:38:38;;;;;;;4.70;4.00;;;14.40;99.90;;;;;;4989340;28;20179;-86
2022/09/13 00:41:05;;;;;;;4.47;3.97;;;14.30;99.90;;;;;;5006421;28;20434;-87
2022/09/13 00:43:55;;;;;;;5.20;3.83;;;14.30;99.90;;;;;;4978116;28;21042;-86
2022/09/13 00:46:30;;;;;;;3.53;2.60;;;14.30;99.90;;;;;;4978361;28;20444;-86
2022/09/13 00:49:12;;;;;;;3.03;2.60;;;14.40;99.90;;;;;;5011899;28;20462;-87
2022/09/13 00:51:41;;;;;;;6.83;3.80;;;14.40;99.90;;;;;;4975156;28;20447;-87
2022/09/13 00:54:07;;;;;;;7.33;4.97;;;14.30;99.90;;;;;;4981682;28;20499;-89
2022/09/13 00:56:38;;;;;;;7.53;4.50;;;14.20;99.90;;;;;;4988673;28;21528;-88
2022/09/13 00:59:09;;;;;;;7.03;4.90;;;14.20;99.90;;;;;;4979111;28;20191;-87
2022/09/13 01:01:47;;;;;;;6.67;4.27;;;14.10;99.90;;;;;;4978730;28;20446;-87
2022/09/13 01:04:14;;;;;;;5.30;3.47;;;14.10;99.90;;;;;;5005373;28;20544;-85
2022/09/13 01:06:40;;;;;;;6.07;4.10;;;14.10;99.90;;;;;;5002307;28;20433;-89
2022/09/13 01:09:06;;;;;;;4.70;4.10;;;14.00;99.90;;;;;;4989333;28;20435;-86
2022/09/13 01:11:49;;;;;;;6.47;4.17;;;14.00;99.90;;;;;;4979316;28;20448;-88
2022/09/13 01:14:17;;;;;;;6.77;4.83;;;13.90;99.90;;;;;;4970818;28;20229;-85
2022/09/13 01:16:43;;;;;;;5.90;3.70;;;13.80;99.90;;;;;;4991847;28;21005;-86
2022/09/13 01:19:09;;;;;;;5.00;3.97;;;13.80;99.90;;;;;;4991833;28;20443;-86
2022/09/13 01:21:57;;;;;;;5.60;4.03;;;13.70;99.90;;;;;;5020768;28;20486;-86
2022/09/13 01:24:55;;;;;;;3.47;3.17;;;13.70;99.90;;;;;;4961669;28;20199;-85
2022/09/13 01:27:35;;;;;;;6.63;4.00;;;13.70;99.90;;;;;;4976504;28;20472;-87
2022/09/13 01:30:08;;;;;;;5.03;3.17;;;13.60;99.90;;;;;;4976265;28;20484;-87
2022/09/13 01:33:15;;;;;;;5.37;3.53;;;13.60;99.90;;;;;;4997742;28;20229;-87
2022/09/13 01:35:46;;;;;;;6.38;4.30;;;13.50;99.90;;;;;;4991294;28;20433;-89
2022/09/13 01:38:21;;;;;;;7.93;4.10;;;13.60;99.90;;;;;;4986948;28;20671;-86
2022/09/13 01:41:23;;;;;;;5.35;4.07;;;13.60;99.90;;;;;;4983652;28;22439;-87
2022/09/13 01:43:57;;;;;;;3.80;3.17;;;12.70;99.90;;;;;;4975798;28;20284;-89
2022/09/13 01:46:37;;;;;;;5.03;3.67;;;13.30;99.90;;;;;;4983909;28;20182;-87
2022/09/13 01:49:22;;;;;;;3.28;2.92;;;13.20;99.90;;;;;;5008699;28;20503;-87
2022/09/13 01:52:13;;;;;;;5.55;3.55;;;13.20;99.90;;;;;;4986635;28;20193;-86
2022/09/13 01:54:48;;;;;;;4.35;3.35;;;13.20;99.90;;;;;;4986405;28;20229;-86
2022/09/13 01:57:14;;;;;;;2.60;2.40;;;13.20;99.90;;;;;;5000765;28;21482;-87
2022/09/13 01:59:51;;;;;;;3.17;2.57;;;13.20;99.90;;;;;;4994217;28;20224;-86
2022/09/13 02:02:27;;;;;;;2.92;2.63;;;13.00;99.90;;;;;;4992857;28;20688;-85
2022/09/13 02:04:58;;;;;;;3.75;2.95;;;13.10;99.90;;;;;;4980460;28;20191;-86
2022/09/13 02:07:30;;;;;;;3.35;2.38;;;13.20;99.90;;;;;;4986941;28;20182;-87
2022/09/13 02:10:05;;;;;;;4.90;4.20;;;13.10;99.90;;;;;;5002561;28;20193;-89
2022/09/13 02:12:35;;;;;;;8.23;4.95;;;13.20;99.90;;;;;;4987386;28;20203;-87
2022/09/13 02:15:15;;;;;;;7.70;4.13;;;13.20;99.90;;;;;;5001217;28;20213;-87
2022/09/13 02:17:46;;;;;;;5.05;4.28;;;13.20;99.90;;;;;;4991075;28;20173;-86
2022/09/13 02:20:34;;;;;;;5.25;4.03;;;13.30;99.90;;;;;;4978891;28;20185;-86
2022/09/13 02:23:03;;;;;;;5.97;3.72;;;13.20;99.90;;;;;;4999967;28;20209;-86
2022/09/13 02:25:31;;;;;;;3.72;2.90;;;13.20;99.90;;;;;;4979097;28;20198;-86
2022/09/13 02:28:00;;;;;;;4.53;2.65;;;13.20;99.90;;;;;;4981623;28;21187;-88
2022/09/13 02:30:30;;;;;;;5.72;3.47;;;13.40;99.90;;;;;;4977714;28;20218;-87
2022/09/13 02:33:05;;;;;;;3.05;2.63;;;13.40;99.90;;;;;;4987546;28;20561;-87
2022/09/13 02:35:50;;;;;;;6.17;3.37;;;13.30;99.90;;;;;;5012005;28;20776;-87
2022/09/13 02:38:32;;;;;;;6.00;3.20;;;13.00;99.90;;;;;;5004609;28;20463;-87
2022/09/13 02:41:30;;;;;;;6.20;3.80;;;12.80;99.90;;;;;;4972072;28;20333;-87
2022/09/13 02:44:09;;;;;;;3.97;3.58;;;12.70;99.90;;;;;;4987090;28;20229;-86
2022/09/13 02:46:56;;;;;;;4.90;2.58;;;12.80;99.90;;;;;;4976565;28;20181;-88
2022/09/13 02:49:33;;;;;;;2.73;2.53;;;12.90;99.90;;;;;;4999049;28;20204;-87
2022/09/13 02:52:32;;;;;;;8.07;3.20;;;13.00;99.90;;;;;;5020483;28;20473;-87
2022/09/13 02:55:06;;;;;;;2.92;2.60;;;12.90;99.90;;;;;;4982655;28;20206;-86
2022/09/13 02:57:40;;;;;;;3.60;2.70;;;12.90;99.90;;;;;;5004905;28;20205;-87
2022/09/13 03:00:07;;;;;;;7.65;3.30;;;12.90;99.90;;;;;;4982482;28;20189;-86
2022/09/13 03:02:33;;;;;;;3.40;3.03;;;;;;;;;;4983123;28;20281;-88
2022/09/13 03:05:00;;;;;;;3.90;2.25;;;12.80;99.90;;;;;;4994821;28;20444;-88
2022/09/13 03:07:26;;;;;;;6.47;3.73;;;;;;;;;;4992560;28;20205;-86
2022/09/13 03:10:04;;;;;;;7.10;3.25;;;12.70;99.90;;;;;;5003795;28;20451;-88
2022/09/13 03:13:04;;;;;;;6.05;4.20;;;12.50;99.90;;;;;;4990246;28;20201;-86
2022/09/13 03:16:05;;;;;;;3.97;3.10;;;12.60;99.90;;;;;;5001671;28;20182;-89
2022/09/13 03:18:39;;;;;;;4.45;2.90;;;12.50;99.90;;;;;;4997808;28;20186;-89
2022/09/13 03:21:33;;;;;;;5.90;3.17;;;12.40;99.90;;;;;;5012669;28;20219;-86
2022/09/13 03:24:24;;;;;;;7.03;3.53;;;12.30;99.90;;;;;;4991963;28;22291;-85
2022/09/13 03:27:08;;;;;;;6.22;3.83;;;12.30;99.90;;;;;;4996534;28;20183;-88
2022/09/13 03:29:59;;;;;;;5.20;3.63;;;12.30;99.90;;;;;;4976705;28;20385;-88
2022/09/13 03:32:56;;;;;;;4.88;3.70;;;12.30;99.90;;;;;;4980252;28;20278;-88
2022/09/13 03:36:04;;;;;;;4.80;4.18;;;12.30;99.90;;;;;;5006023;28;20213;-88
2022/09/13 03:38:41;;;;;;;8.95;4.00;;;12.30;99.90;;;;;;4986886;28;20189;-86
2022/09/13 03:41:09;;;;;;;4.70;3.63;;;12.40;99.90;;;;;;4981502;28;20760;-86
2022/09/13 03:43:44;;;;;;;5.72;4.15;;;12.40;99.90;;;;;;4992293;28;21024;-86
2022/09/13 03:46:37;;;;;;;7.38;4.15;;;12.50;99.90;;;;;;4992808;28;20178;-86
2022/09/13 03:49:10;;;;;;;8.88;4.35;;;12.40;99.90;;;;;;5006909;28;20188;-88
2022/09/13 03:51:37;;;;;;;6.00;3.95;;;12.30;99.90;;;;;;5007556;28;20186;-85
2022/09/13 03:54:08;;;;;;;6.15;3.78;;;12.30;99.90;;;;;;5006548;28;20240;-87
2022/09/13 03:56:34;;;;;;;4.50;3.60;;;12.20;99.90;;;;;;4978149;28;20187;-86
2022/09/13 03:58:59;;;;;;;6.07;3.50;;;12.20;99.90;;;;;;4997558;28;20304;-85
2022/09/13 04:01:25;;;;;;;4.00;3.47;;;12.20;99.90;;;;;;4986506;28;20186;-87
2022/09/13 04:03:51;;;;;;;6.13;3.13;;;;;;;;;;4979246;28;20194;-87
2022/09/13 04:06:17;;;;;;;4.87;3.10;;;;;;;;;;4995012;28;20432;-87
2022/09/13 04:08:46;;;;;;;5.63;3.88;;;12.20;99.90;;;;;;5004050;28;21655;-87
2022/09/13 04:11:11;;;;;;;5.40;3.15;;;12.20;99.90;;;;;;4994635;28;20194;-86
2022/09/13 04:13:37;;;;;;;4.70;2.93;;;12.20;99.90;;;;;;4983135;28;20797;-88
2022/09/13 04:16:04;;;;;;;3.80;3.40;;;12.40;99.90;;;;;;4992826;28;20174;-86
2022/09/13 04:18:31;;;;;;;5.00;3.65;;;;;;;;;;5011337;28;20201;-86
2022/09/13 04:20:58;;;;;;;3.17;2.45;;;12.50;99.90;;;;;;5010755;28;20204;-87
2022/09/13 04:23:26;;;;;;;7.38;4.15;;;12.40;99.90;;;;;;5007733;28;20203;-87
2022/09/13 04:25:52;;;;;;;4.07;3.45;;;;;;;;;;4991136;28;20283;-86
2022/09/13 04:28:18;;;;;;;4.45;3.33;;;;;;;;;;4979605;28;20197;-89
2022/09/13 04:30:45;;;;;;;6.28;3.72;;;12.50;99.90;;;;;;4995378;28;20214;-87
2022/09/13 04:33:11;;;;;;;5.22;3.08;;;;;;;;;;4998533;28;20776;-87
2022/09/13 04:35:38;;;;;;;10.38;3.17;;;;;;;;;;4988460;28;20182;-87
2022/09/13 04:38:04;;;;;;;3.85;3.30;;;12.70;99.90;;;;;;4970538;28;20970;-85
2022/09/13 04:40:30;;;;;;;6.68;3.70;;;12.60;99.90;;;;;;4961310;28;20191;-86
2022/09/13 04:42:55;;;;;;;3.53;3.23;;;13.50;99.90;;;;;;4965517;28;20222;-84
2022/09/13 04:45:22;;;;;;;4.50;3.40;;;;;;;;;;4975818;28;20447;-87
2022/09/13 04:47:52;;;;;;;5.03;3.45;;;13.00;99.90;;;;;;4961701;28;20209;-86
2022/09/13 04:50:19;;;;;;;5.22;3.40;;;13.00;99.90;;;;;;4967963;28;20213;-86
2022/09/13 04:52:45;;;;;;;7.68;3.85;;;;;;;;;;4964994;28;20969;-85
2022/09/13 04:55:11;;;;;;;5.10;3.67;;;;;;;;;;4965528;28;20227;-87
2022/09/13 04:57:36;;;;;;;17.20;4.07;;;12.90;99.90;;;;;;4967270;28;20475;-85
2022/09/13 05:00:03;;;;;;;5.33;3.63;;;12.90;99.90;;;;;;4985879;28;20488;-87
2022/09/13 05:02:29;;;;;;;4.00;3.08;;;12.90;99.90;;;;;;4967304;28;20203;-87
2022/09/13 05:04:55;;;;;;;5.43;3.60;;;;;;;;;;4975581;28;20201;-86
2022/09/13 05:07:21;;;;;;;5.37;4.00;;;12.90;99.90;;;;;;4975231;28;20197;-87
2022/09/13 05:09:46;;;;;;;5.00;4.10;;;12.90;99.90;;;;;;4989412;28;20443;-87
2022/09/13 05:12:12;;;;;;;6.17;3.07;;;13.80;99.90;;;;;;4975791;28;20468;-86
2022/09/13 05:14:38;;;;;;;5.20;2.90;;;13.00;99.90;;;;;;4972832;28;20214;-87
2022/09/13 05:17:04;;;;;;;5.63;3.67;;;;;;;;;;5007121;28;20261;-85
2022/09/13 05:19:30;;;;;;;6.07;4.10;;;;;;;;;;4995720;28;20191;-86
2022/09/13 05:21:55;;;;;;;14.17;4.70;;;13.20;99.90;;;;;;5000831;28;20445;-86
2022/09/13 05:24:21;;;;;;;6.03;5.00;;;;;;;;;;4981847;28;20492;-86
2022/09/13 05:26:47;;;;;;;5.67;4.03;;;14.20;99.90;;;;;;4984015;28;20571;-85
2022/09/13 05:29:12;;;;;;;5.90;4.40;;;15.00;99.90;;;;;;4976055;28;20450;-89
2022/09/13 05:31:40;;;;;;;4.90;3.67;;;15.70;99.90;;;;;;4999646;28;20221;-87
2022/09/13 05:34:10;;;;;;;5.77;3.67;;;15.70;99.90;;;;;;5007790;28;20222;-86
2022/09/13 05:36:37;;;;;;;6.20;3.00;;;15.70;99.90;;;;;;4975121;28;20438;-87
2022/09/13 05:39:03;;;;;;;4.33;3.73;;;15.50;99.90;;;;;;4995552;28;20443;-87
2022/09/13 05:41:29;;;;;;;5.90;4.10;;;15.30;99.90;;;;;;5007214;23;21025;-85
2022/09/13 05:43:54;;;;;;;5.57;4.40;;;15.30;99.90;;;;;;4995130;28;20479;-86
2022/09/13 05:46:20;;;;;;;6.70;4.40;;;15.20;99.90;;;;;;4996947;28;20309;-86
2022/09/13 05:48:47;;;;;;;5.43;3.57;;;15.20;99.90;;;;;;4973944;28;20617;-85
2022/09/13 05:51:15;;;;;;;6.53;3.97;;;15.50;99.90;;;;;;4989884;28;21260;-84
2022/09/13 05:53:43;;;;;;;5.73;4.30;;;16.40;99.90;;;;;;4992838;28;20509;-85
2022/09/13 05:56:11;;;;;;;7.10;4.07;;;15.70;99.90;;;;;;4988183;28;20443;-86
2022/09/13 05:58:45;;;;;;;7.20;4.80;;;16.00;99.90;;;;;;4986144;28;20450;-86
2022/09/13 06:01:11;;;;;;;7.10;4.37;;;15.80;99.90;;;;;;4986115;28;20520;-86
2022/09/13 06:03:37;;;;;;;7.60;4.97;;;;;;;;;;4974143;28;20532;-84
2022/09/13 06:06:04;;;;;;;7.73;4.50;;;15.80;99.90;;;;;;4979410;28;20524;-85
2022/09/13 06:08:31;;;;;;;5.33;4.83;;;16.30;99.90;;;;;;4980979;28;21007;-85
2022/09/13 06:10:59;;;;;;;7.00;4.70;;;16.50;99.90;;;;;;4966918;28;20962;-84
2022/09/13 06:13:25;;;;;;;6.13;5.20;;;16.50;99.90;;;;;;4964654;28;20462;-86
2022/09/13 06:15:52;;;;;;;9.33;5.47;;;;;;;;;;4982405;28;20441;-85
2022/09/13 06:18:18;;;;;;;8.20;5.57;;;16.50;99.90;;;;;;4987514;28;20442;-86
2022/09/13 06:20:44;;;;;;;9.63;3.90;;;;;;;;;;4969874;28;20472;-86
2022/09/13 06:23:10;;;;;;;5.43;4.07;;;;;;;;;;4982541;28;20958;-86
2022/09/13 06:25:36;;;;;;;7.60;5.30;;;17.00;99.90;;;;;;4979511;28;20436;-87
2022/09/13 06:28:02;;;;;;;6.37;4.57;;;17.00;99.90;;;;;;4982553;28;20481;-85
2022/09/13 06:30:27;;;;;;;6.50;5.27;;;16.90;99.90;;;;;;4976355;28;21035;-85
2022/09/13 06:32:55;;;;;;;4.20;3.80;;;17.00;99.90;;;;;;4981438;28;20674;-86
2022/09/13 06:35:21;;;;;;;6.43;4.27;;;;;;;;;;4971587;28;20224;-86
2022/09/13 06:37:47;;;;;;;5.23;4.27;;;;;;;;;;4987854;28;20439;-86
2022/09/13 06:40:13;;;;;;;6.83;3.80;;;18.00;99.90;;;;;;4974151;28;20430;-87
2022/09/13 06:42:39;;;;;;;5.70;4.17;;;;;;;;;;4991480;28;20477;-85
2022/09/13 06:45:05;;;;;;;5.30;3.70;;;18.30;99.90;;;;;;4984393;28;23061;-84
2022/09/13 06:47:31;;;;;;;6.73;4.07;;;;;;;;;;4982929;28;20532;-86
2022/09/13 06:49:57;;;;;;;6.73;4.23;;;19.40;99.90;;;;;;4996016;28;20517;-86
2022/09/13 06:52:23;;;;;;;5.93;4.00;;;;;;;;;;4995788;28;20462;-84
2022/09/13 06:54:50;;;;;;;4.50;4.00;;;;;;;;;;4993779;28;20218;-84
2022/09/13 06:57:15;;;;;;;8.83;3.97;;;;;;;;;;5005178;28;20504;-84
2022/09/13 06:59:42;;;;;;;3.40;3.10;;;;;;;;;;4991860;28;20429;-86
2022/09/13 07:02:09;;;;;;;6.00;4.43;;;22.80;99.90;;;;;;4985184;28;20454;-85
2022/09/13 07:04:35;;;;;;;4.70;3.50;;;;;;;;;;4987275;28;20508;-84
2022/09/13 07:07:01;;;;;;;7.40;4.13;;;;;;;;;;4998876;28;20437;-83
2022/09/13 07:09:27;;;;;;;5.07;3.33;;;;;;;;;;5009041;28;20527;-86
2022/09/13 07:11:54;;;;;;;4.90;4.40;;;23.40;99.90;;;;;;4995592;28;21093;-85
2022/09/13 07:14:25;;;;;;;5.03;4.40;;;23.50;99.90;;;;;;4995386;28;20481;-87
2022/09/13 07:16:51;;;;;;;6.30;4.67;;;24.20;99.90;;;;;;4974162;28;20442;-86
2022/09/13 07:19:23;;;;;;;10.50;4.63;;;24.00;99.90;;;;;;4988817;28;20600;-89
2022/09/13 07:21:49;;;;;;;5.63;4.83;;;;;;;;;;4972808;28;20458;-86
2022/09/13 07:24:16;;;;;;;6.00;4.50;;;24.60;99.90;;;;;;4992661;28;20912;-86
2022/09/13 07:26:43;;;;;;;7.07;4.40;;;;;;;;;;4986644;28;20580;-86
2022/09/13 07:29:15;;;;;;;5.00;4.20;;;25.20;99.90;;;;;;4983046;28;20489;-87
2022/09/13 07:31:44;;;;;;;6.10;4.90;;;25.20;99.90;;;;;;4978627;28;20520;-85
2022/09/13 07:34:15;;;;;;;5.63;3.77;;;24.30;99.90;;;;;;4984827;28;20515;-85
2022/09/13 07:36:41;;;;;;;6.20;4.60;;;;;;;;;;4989882;28;20439;-85
2022/09/13 07:39:07;;;;;;;5.80;3.50;;;23.00;99.90;;;;;;4966621;28;20453;-86
2022/09/13 07:41:33;;;;;;;8.77;3.87;;;;;;;;;;4985772;28;20480;-86
2022/09/13 07:44:00;;;;;;;5.20;4.07;;;22.90;99.90;;;;;;4984462;28;20433;-87
2022/09/13 07:46:31;;;;;;;4.67;3.90;;;22.60;99.90;;;;;;4987000;28;20758;-86
2022/09/13 07:48:59;;;;;;;11.83;4.63;;;22.40;99.90;;;;;;4986387;28;20552;-87
2022/09/13 07:51:27;;;;;;;9.20;3.90;;;22.10;99.90;;;;;;4973821;28;20461;-87
2022/09/13 07:53:55;;;;;;;7.83;4.33;;;21.90;99.90;;;;;;4986573;28;20959;-85
2022/09/13 07:56:24;;;;;;;8.70;4.70;;;22.00;99.90;;;;;;4986575;28;21018;-86
2022/09/13 07:58:50;;;;;;;8.33;5.17;;;21.90;99.90;;;;;;4984058;28;20465;-85
2022/09/13 08:01:25;;;;;;;11.40;5.30;;;21.60;99.90;;;;;;4986721;28;21044;-87
2022/09/13 08:04:02;;;;;;;12.57;5.13;;;21.50;99.90;;;;;;4985296;28;20479;-85
2022/09/13 08:06:29;;;;;;;7.77;5.10;;;21.50;99.90;;;;;;4968619;28;20481;-85
2022/09/13 08:08:56;;;;;;;13.40;5.40;;;21.70;99.90;;;;;;4991538;28;20429;-87
2022/09/13 08:11:25;;;;;;;10.40;5.30;;;22.00;99.90;;;;;;4986156;28;20974;-86
2022/09/13 08:13:51;;;;;;;9.80;4.77;;;22.30;99.90;;;;;;4981996;28;20526;-86
2022/09/13 08:16:19;;;;;;;9.40;6.10;;;22.60;99.90;;;;;;4983751;28;20572;-87
2022/09/13 08:18:46;;;;;;;10.50;4.10;;;22.80;99.90;;;;;;4981073;28;20449;-88
2022/09/13 08:21:12;;;;;;;12.17;4.63;;;;;;;;;;5002766;28;20452;-87
2022/09/13 08:23:38;;;;;;;8.37;4.80;;;;;;;;;;4997692;28;20422;-84
2022/09/13 08:26:06;;;;;;;10.70;4.70;;;23.30;99.90;;;;;;5014168;28;20445;-85
2022/09/13 08:28:34;;;;;;;12.27;5.20;;;23.50;99.90;;;;;;4996710;28;20437;-86
2022/09/13 08:31:16;;;;;;;12.40;5.47;;;23.00;99.90;;;;;;4989508;28;20475;-85
2022/09/13 08:33:44;;;;;;;13.10;4.77;;;23.00;99.90;;;;;;4992979;28;20545;-88
2022/09/13 08:36:10;;;;;;;14.27;5.23;;;;;;;;;;4992431;28;20433;-88
2022/09/13 08:38:36;;;;;;;13.80;4.67;;;;;;;;;;4974010;28;20483;-86
2022/09/13 08:41:22;;;;;;;9.37;4.50;;;22.80;99.90;;;;;;4974716;28;20560;-86
2022/09/13 08:44:04;;;;;;;10.27;4.10;;;23.40;99.90;;;;;;4994702;28;20516;-87
2022/09/13 08:46:38;;;;;;;8.03;4.57;;;23.90;99.90;;;;;;4964902;28;20437;-88
2022/09/13 08:49:07;;;;;;;8.47;4.10;;;24.20;99.90;;;;;;4986878;28;20440;-87
2022/09/13 08:51:41;;;;;;;15.67;5.00;;;24.80;99.90;;;;;;4984673;28;20592;-87
2022/09/13 08:54:11;;;;;;;10.83;4.20;;;25.10;99.90;;;;;;4990829;28;20964;-85
2022/09/13 08:56:59;;;;;;;10.40;4.17;;;26.00;99.90;;;;;;4973090;28;20577;-87
2022/09/13 08:59:46;;;;;;;14.43;4.30;;;26.00;99.90;;;;;;4984952;28;20478;-85
2022/09/13 09:02:41;;;;;;;5.70;3.80;;;26.10;99.90;;;;;;4960441;28;20486;-85
2022/09/13 09:05:19;;;;;;;9.53;4.00;;;26.00;99.90;;;;;;4987273;28;20505;-87
2022/09/13 09:07:56;;;;;;;5.90;3.57;;;25.90;99.90;;;;;;4982131;28;20445;-88
2022/09/13 09:10:32;;;;;;;6.13;3.40;;;26.60;99.90;;;;;;4985338;28;20464;-86
2022/09/13 09:13:04;;;;;;;14.00;4.33;;;27.50;99.90;;;;;;4987377;28;20565;-87
2022/09/13 09:15:46;;;;;;;9.20;3.53;;;29.20;98.40;;;;;;4990351;28;20456;-86
2022/09/13 09:18:22;;;;;;;6.30;3.47;;;29.10;92.80;;;;;;4989006;28;20434;-87
2022/09/13 09:20:50;;;;;;;8.43;3.10;;;29.40;93.60;;;;;;4974723;28;20450;-87
2022/09/13 09:23:34;;;;;;;10.50;4.03;;;29.50;91.60;;;;;;4981914;28;20435;-87
2022/09/13 09:26:21;;;;;;;2.20;2.00;;;29.70;85.90;;;;;;4990829;28;20492;-86
2022/09/13 09:28:56;;;;;;;3.30;2.20;;;29.30;84.20;;;;;;4994524;28;20430;-87
2022/09/13 09:31:48;;;;;;;3.13;2.40;;;29.10;83.80;;;;;;4992190;28;20465;-87
2022/09/13 09:34:41;;;;;;;5.33;3.03;;;28.80;81.60;;;;;;4980234;28;20509;-85
2022/09/13 09:37:07;;;;;;;3.70;2.20;;;;;;;;;;4981893;28;20439;-86
2022/09/13 09:39:37;;;;;;;2.43;2.23;;;;;;;;;;4979353;28;20428;-86
2022/09/13 09:42:04;;;;;;;3.40;2.43;;;;;;;;;;4986608;28;20540;-88
2022/09/13 09:44:32;;;;;;;2.80;2.30;;;30.50;80.60;;;;;;4973647;28;20443;-86
2022/09/13 09:47:16;;;;;;;4.10;2.60;;;30.60;78.40;;;;;;4960072;28;20435;-85
2022/09/13 09:52:32;;;;;;;4.30;3.07;;;30.60;75.70;;;;;;5006030;28;20475;-84
2022/09/13 09:55:13;;;;;;;6.27;3.20;;;30.80;75.20;;;;;;5015063;28;20484;-84
2022/09/13 09:57:50;;;;;;;6.07;3.73;;;31.30;73.00;;;;;;5008377;28;20505;-85
2022/09/13 10:00:16;;;;;;;4.30;2.67;;;;;;;;;;5002238;28;21419;-86
2022/09/13 10:02:43;;;;;;;4.53;4.00;;;32.00;68.40;;;;;;4990878;28;20465;-85
2022/09/13 10:05:11;;;;;;;5.30;3.43;;;;;;;;;;4969163;28;20437;-86
2022/09/13 10:07:37;;;;;;;4.93;2.73;;;31.60;66.60;;;;;;4980948;28;20972;-86
2022/09/13 10:10:23;;;;;;;6.67;3.23;;;31.30;67.70;;;;;;4984851;28;20438;-86
2022/09/13 10:12:53;;;;;;;6.70;2.90;;;31.00;67.30;;;;;;4988008;28;20622;-85
2022/09/13 10:15:21;;;;;;;7.07;3.33;;;30.60;67.70;;;;;;4968364;28;20940;-85
2022/09/13 10:18:06;;;;;;;3.77;2.83;;;29.80;71.00;;;;;;4971053;28;20950;-86
2022/09/13 10:20:33;;;;;;;4.13;2.13;;;29.60;77.40;;;;;;4987736;28;20451;-87
2022/09/13 10:23:18;;;;;;;2.60;2.10;;;29.30;69.90;;;;;;4993327;28;20445;-87
2022/09/13 10:25:56;;;;;;;5.13;2.47;;;28.90;71.50;;;;;;4977293;28;20438;-86
2022/09/13 10:28:22;;;;;;;2.90;2.37;;;;;;;;;;4987527;28;20440;-88
2022/09/13 10:30:54;;;;;;;3.27;1.70;;;29.20;68.50;;;;;;4990826;28;20530;-86
2022/09/13 10:33:29;;;;;;;6.20;2.33;;;29.40;70.00;;;;;;4985139;28;21373;-85
2022/09/13 10:35:58;;;;;;;2.93;1.80;;;29.30;69.50;;;;;;4973529;28;20472;-86
2022/09/13 10:38:36;;;;;;;1.63;1.50;;;28.50;67.50;;;;;;4995709;28;20441;-85
2022/09/13 10:41:06;;;;;;;3.87;1.70;;;28.20;68.90;;;;;;4985716;28;20479;-85
2022/09/13 10:43:32;;;;;;;7.47;1.50;;;28.40;69.00;;;;;;4983031;28;20439;-86
2022/09/13 10:46:01;;;;;;;1.33;1.23;;;28.70;70.70;;;;;;4983540;28;20452;-86
2022/09/13 10:48:28;;;;;;;6.00;2.60;;;28.70;72.40;;;;;;4962154;28;20451;-85
2022/09/13 10:51:35;;;;;;;9.37;3.03;;;28.00;82.40;;;;;;4988725;28;20480;-86
2022/09/13 10:54:16;;;;;;;3.00;2.07;;;27.90;74.50;;;;;;4943411;28;20967;-85
2022/09/13 10:56:43;;;;;;;3.33;2.50;;;;;;;;;;4984076;28;20483;-86
2022/09/13 10:59:15;;;;;;;3.43;2.37;;;27.80;75.90;;;;;;4966692;28;20437;-85
2022/09/13 11:01:59;;;;;;;3.53;2.23;;;28.60;74.30;;;;;;4983863;28;20451;-84
2022/09/13 11:04:51;;;;;;;3.87;2.03;;;28.90;71.90;;;;;;4988427;28;20752;-84
2022/09/13 11:07:56;;;;;;;5.73;2.43;;;29.40;71.00;;;;;;4973413;28;20479;-85
2022/09/13 11:10:41;;;;;;;8.40;2.17;;;29.70;70.10;;;;;;4933570;28;20441;-85
2022/09/13 11:13:34;;;;;;;6.47;2.50;;;29.30;71.50;;;;;;4992784;28;20509;-85
2022/09/13 11:16:09;;;;;;;5.20;2.50;;;29.40;80.30;;;;;;4971613;28;21195;-86
2022/09/13 11:18:58;;;;;;;3.50;2.00;;;29.50;69.60;;;;;;4985612;28;20504;-87
2022/09/13 11:21:24;;;;;;;2.47;2.27;;;;;;;;;;4970335;28;20464;-85
2022/09/13 11:23:51;;;;;;;6.40;2.77;;;;;;;;;;4990018;28;20437;-86
2022/09/13 11:26:35;;;;;;;4.43;2.10;;;28.30;79.60;;;;;;4984483;28;20216;-85
2022/09/13 11:29:39;;;;;;;8.23;2.43;;;28.00;74.50;;;;;;5000191;28;20470;-86
2022/09/13 11:32:24;;;;;;;2.70;2.00;;;27.90;77.90;;;;;;4969591;28;20571;-87
2022/09/13 11:35:08;;;;;;;4.30;2.03;;;28.20;82.90;;;;;;4991096;28;20480;-86
2022/09/13 11:37:34;;;;;;;3.07;2.30;;;;;;;;;;4987315;28;20450;-87
2022/09/13 11:40:38;;;;;;;8.77;2.30;;;28.10;72.70;;;;;;4979050;28;20437;-85
2022/09/13 11:43:04;;;;;;;4.03;2.20;;;;;;;;;;4963331;28;20503;-84
2022/09/13 11:45:43;;;;;;;4.87;2.00;;;29.20;74.70;;;;;;4986537;28;20840;-86
2022/09/13 11:48:21;;;;;;;3.80;2.33;;;28.60;71.20;;;;;;4977534;28;20478;-84
2022/09/13 11:50:54;;;;;;;5.70;1.50;;;28.90;70.40;;;;;;4985333;28;20473;-86
2022/09/13 11:53:45;;;;;;;2.60;1.93;;;28.60;68.30;;;;;;4964489;28;20453;-85
2022/09/13 11:56:18;;;;;;;2.03;1.70;;;29.00;68.00;;;;;;4983408;28;20467;-85
2022/09/13 11:59:33;;;;;;;3.53;1.93;;;28.60;69.60;;;;;;4983524;28;20452;-86
2022/09/13 12:02:11;;;;;;;2.00;1.80;;;29.20;68.30;;;;;;4981296;28;21060;-85
2022/09/13 12:04:47;;;;;;;4.40;2.00;;;30.00;65.80;;;;;;4978259;28;20436;-86
2022/09/13 12:07:33;;;;;;;2.37;1.60;;;30.20;65.40;;;;;;4995259;28;20438;-86
2022/09/13 12:10:20;;;;;;;3.67;1.73;;;30.10;63.80;;;;;;4977139;28;20527;-85
2022/09/13 12:12:49;;;;;;;9.33;2.20;;;30.40;63.50;;;;;;4979708;28;20462;-85
2022/09/13 12:15:21;;;;;;;2.10;1.73;;;30.10;63.00;;;;;;4979489;28;20525;-87
2022/09/13 12:18:12;;;;;;;2.37;1.83;;;30.30;63.50;;;;;;4971435;28;21624;-84
2022/09/13 12:20:45;;;;;;;1.97;1.70;;;31.10;65.70;;;;;;4982763;28;20481;-86
2022/09/13 12:23:15;;;;;;;4.50;2.30;;;31.10;61.10;;;;;;4982243;28;20443;-87
2022/09/13 12:25:53;;;;;;;1.70;1.60;;;31.00;60.30;;;;;;4981245;28;22360;-87
2022/09/13 12:28:26;;;;;;;5.67;2.03;;;31.20;60.70;;;;;;4975416;28;20442;-87
2022/09/13 12:30:56;;;;;;;2.93;2.00;;;31.50;59.30;;;;;;4975333;28;20505;-85
2022/09/13 12:33:22;;;;;;;4.50;1.80;;;;;;;;;;4979421;28;20449;-85
2022/09/13 12:36:02;;;;;;;2.90;1.90;;;31.50;59.40;;;;;;4998768;28;20450;-87
2022/09/13 12:38:48;;;;;;;3.27;1.80;;;31.30;58.80;;;;;;4988376;28;20510;-85
2022/09/13 12:41:26;;;;;;;5.27;2.57;;;31.40;59.80;;;;;;5007184;28;20566;-84
2022/09/13 12:44:09;;;;;;;4.53;2.10;;;31.10;58.90;;;;;;4970684;28;20458;-84
2022/09/13 12:57:09;;;;;;;4.73;1.60;;;31.40;56.50;;;;;;4972644;28;20500;-88
2022/09/13 13:00:12;;;;;;;3.17;1.70;;;31.10;56.60;;;;;;4953585;28;20459;-88
2022/09/13 13:02:51;;;;;;;2.70;1.97;;;31.40;56.50;;;;;;4982600;28;20442;-88
2022/09/13 13:05:29;;;;;;;3.00;1.50;;;31.30;56.60;;;;;;4964184;28;20550;-88
2022/09/13 13:08:02;;;;;;;1.70;1.40;;;31.30;54.80;;;;;;4983442;28;21276;-88
2022/09/13 13:10:32;;;;;;;2.30;1.30;;;31.40;54.50;;;;;;4976664;28;20446;-88
2022/09/13 13:13:41;;;;;;;5.50;1.30;;;31.40;54.10;;;;;;4991099;28;20859;-88
2022/09/13 13:16:27;;;;;;;2.43;2.10;;;31.70;56.80;;;;;;4931857;29;20508;-88
2022/09/13 13:19:24;;;;;;;2.53;1.60;;;30.90;55.50;;;;;;4945578;28;21006;-87
2022/09/13 13:21:50;;;;;;;2.57;1.50;;;;;;;;;;4961214;28;21249;-88
2022/09/13 13:24:16;;;;;;;2.20;1.73;;;;;;;;;;4981463;28;20444;-87
2022/09/13 13:26:42;;;;;;;1.50;1.40;;;;;;;;;;4984738;28;20462;-88
2022/09/13 13:29:18;;;;;;;3.17;1.30;;;30.60;54.60;;;;;;4960359;28;20457;-88
2022/09/13 13:31:56;;;;;;;1.20;1.10;;;31.00;53.20;;;;;;4985291;28;20446;-88
2022/09/13 13:34:22;;;;;;;1.60;1.27;;;;;;;;;;4956600;28;20463;-88
2022/09/13 13:37:11;;;;;;;2.63;1.30;;;31.40;52.50;;;;;;4975574;28;20503;-87
2022/09/13 13:39:40;;;;;;;2.50;1.70;;;31.30;51.70;;;;;;4950559;28;20216;-88
2022/09/13 13:42:20;;;;;;;2.13;1.10;;;31.40;52.90;;;;;;4978065;28;20453;-87
2022/09/13 13:44:46;;;;;;;2.90;1.30;;;;;;;;;;4982339;28;20543;-87
2022/09/13 13:47:12;;;;;;;1.33;1.23;;;;;;;;;;4979607;28;20555;-88
2022/09/13 13:49:38;;;;;;;3.20;1.20;;;;;;;;;;4967384;28;20443;-87
2022/09/13 13:52:09;;;;;;;3.43;1.60;;;30.30;53.20;;;;;;4955499;28;20457;-87